Portada
METAR-TAF:

METAR-TAF

Aeroports :

David, Panamà

latitud: 08-24N, longitud: 082-25W, altitud: 29 m

Observació

L'informe es va fer fa 2 hores i 28 minuts, a les 03:00 UTC
Vent 3 kt del Oest/Nord-Oest, variant entre Oest i Nord/Nord-Oest
Temperatura 25°C
Humitat 94%
Pressió 1012 hPa
Visibilitat 10 km o més
Núvols disperses a una alçada de 1600 ft
Núvols disperses a una alçada de 9000 ft

METAR: MPDA 290300Z 29003KT 270V330 9999 SCT016 SCT090 25/24 Q1012

Hora: 00:28 (05:28 UTC)

Pronòstic

L'informe es va fer fa 5 hores i 58 minuts, a les 23:30 UTC
Pronòstic vàlid del 29 a les 00 UTC al 29 a les 12 UTC
Vent 3 kt del Nord/Nord-Est
Visibilitat 10 km o més
Núvols disperses a una alçada de 1800 ft
Núvols disperses a una alçada de 9000 ft
Temporalment
l' 29 a les 03 UTC al 29 a les 06 UTC
Vent 2 kt amb direcció variable

TAF: MPDA 282330Z 2900/2912 02003KT 9999 SCT018 SCT090 TEMPO 2903/2906 VRB02KT

Observacions i pronòstics meteorològics de més de 4000 aeroports (METAR i TAF).

Les estacions disponibles són els punts grocs i vermells al mapa.

Posi el ratolí al punt desitjat per veure el nom de l'estació.

Feu clic per veure les observacions i els pronòstics meteorològics.

Per canviar el mapa: feu clic els botons verds amb una creu de color negre per apropar; al botó verd amb un guió per allunyar la imatge; o en les fletxes verdes per a mapes adjacents.


METAR-TAF: